sensor_id;sensor_type;location;lat;lon;timestamp;P1;durP1;ratioP1;P2;durP2;ratioP2
4748;SDS011;2388;53.582;9.962;2022-12-17T00:01:53;28.65;;;17.83;;
4748;SDS011;2388;53.582;9.962;2022-12-17T00:04:37;25.52;;;17.55;;
4748;SDS011;2388;53.582;9.962;2022-12-17T00:07:21;26.15;;;17.17;;
4748;SDS011;2388;53.582;9.962;2022-12-17T00:10:05;28.35;;;18.65;;
4748;SDS011;2388;53.582;9.962;2022-12-17T00:12:49;34.22;;;19.02;;
4748;SDS011;2388;53.582;9.962;2022-12-17T00:15:49;30.80;;;19.10;;
4748;SDS011;2388;53.582;9.962;2022-12-17T00:18:36;31.83;;;18.70;;
4748;SDS011;2388;53.582;9.962;2022-12-17T00:21:20;33.30;;;19.55;;
4748;SDS011;2388;53.582;9.962;2022-12-17T00:24:04;32.47;;;18.25;;
4748;SDS011;2388;53.582;9.962;2022-12-17T00:26:49;30.60;;;17.98;;
4748;SDS011;2388;53.582;9.962;2022-12-17T00:29:33;35.45;;;19.85;;
4748;SDS011;2388;53.582;9.962;2022-12-17T00:32:17;40.60;;;21.95;;
4748;SDS011;2388;53.582;9.962;2022-12-17T00:35:01;37.30;;;22.02;;
4748;SDS011;2388;53.582;9.962;2022-12-17T00:37:45;34.53;;;20.20;;
4748;SDS011;2388;53.582;9.962;2022-12-17T00:40:29;35.15;;;19.98;;
4748;SDS011;2388;53.582;9.962;2022-12-17T00:43:13;40.38;;;22.50;;
4748;SDS011;2388;53.582;9.962;2022-12-17T00:45:57;31.45;;;19.70;;
4748;SDS011;2388;53.582;9.962;2022-12-17T00:48:42;35.35;;;21.30;;
4748;SDS011;2388;53.582;9.962;2022-12-17T00:51:26;35.60;;;20.35;;
4748;SDS011;2388;53.582;9.962;2022-12-17T00:54:10;33.60;;;21.45;;
4748;SDS011;2388;53.582;9.962;2022-12-17T00:56:55;30.60;;;19.88;;
4748;SDS011;2388;53.582;9.962;2022-12-17T00:59:39;34.30;;;20.48;;
4748;SDS011;2388;53.582;9.962;2022-12-17T01:02:23;35.70;;;20.65;;
4748;SDS011;2388;53.582;9.962;2022-12-17T01:05:08;41.15;;;23.45;;
4748;SDS011;2388;53.582;9.962;2022-12-17T01:07:53;36.03;;;22.00;;
4748;SDS011;2388;53.582;9.962;2022-12-17T01:10:37;37.90;;;22.77;;
4748;SDS011;2388;53.582;9.962;2022-12-17T01:13:21;33.47;;;20.83;;
4748;SDS011;2388;53.582;9.962;2022-12-17T01:16:08;35.38;;;21.77;;
4748;SDS011;2388;53.582;9.962;2022-12-17T01:18:53;38.63;;;22.00;;
4748;SDS011;2388;53.582;9.962;2022-12-17T01:21:38;31.00;;;20.65;;
4748;SDS011;2388;53.582;9.962;2022-12-17T01:24:22;38.70;;;21.08;;
4748;SDS011;2388;53.582;9.962;2022-12-17T01:27:07;36.17;;;19.83;;
4748;SDS011;2388;53.582;9.962;2022-12-17T01:29:51;34.33;;;19.98;;
4748;SDS011;2388;53.582;9.962;2022-12-17T01:32:36;38.85;;;22.17;;
4748;SDS011;2388;53.582;9.962;2022-12-17T01:35:20;34.78;;;20.70;;
4748;SDS011;2388;53.582;9.962;2022-12-17T01:38:11;31.00;;;20.17;;
4748;SDS011;2388;53.582;9.962;2022-12-17T01:40:56;33.03;;;21.98;;
4748;SDS011;2388;53.582;9.962;2022-12-17T01:43:40;30.83;;;19.90;;
4748;SDS011;2388;53.582;9.962;2022-12-17T01:46:24;32.88;;;20.17;;
4748;SDS011;2388;53.582;9.962;2022-12-17T01:49:10;36.00;;;20.80;;
4748;SDS011;2388;53.582;9.962;2022-12-17T01:51:54;31.33;;;19.70;;
4748;SDS011;2388;53.582;9.962;2022-12-17T01:54:41;29.65;;;19.58;;
4748;SDS011;2388;53.582;9.962;2022-12-17T01:57:28;45.60;;;20.02;;
4748;SDS011;2388;53.582;9.962;2022-12-17T02:00:13;39.90;;;21.50;;
4748;SDS011;2388;53.582;9.962;2022-12-17T02:02:59;38.13;;;20.35;;
4748;SDS011;2388;53.582;9.962;2022-12-17T02:08:36;30.88;;;19.98;;
4748;SDS011;2388;53.582;9.962;2022-12-17T02:11:34;32.08;;;19.65;;
4748;SDS011;2388;53.582;9.962;2022-12-17T02:14:39;32.70;;;20.60;;
4748;SDS011;2388;53.582;9.962;2022-12-17T02:17:29;34.17;;;19.83;;
4748;SDS011;2388;53.582;9.962;2022-12-17T02:23:16;36.25;;;21.20;;
4748;SDS011;2388;53.582;9.962;2022-12-17T02:26:35;32.85;;;19.40;;
4748;SDS011;2388;53.582;9.962;2022-12-17T02:29:22;34.22;;;20.95;;
4748;SDS011;2388;53.582;9.962;2022-12-17T02:32:08;35.67;;;19.52;;
4748;SDS011;2388;53.582;9.962;2022-12-17T02:34:54;34.22;;;21.42;;
4748;SDS011;2388;53.582;9.962;2022-12-17T02:37:44;33.38;;;18.65;;
4748;SDS011;2388;53.582;9.962;2022-12-17T02:40:32;36.03;;;20.70;;
4748;SDS011;2388;53.582;9.962;2022-12-17T02:43:18;32.55;;;19.85;;
4748;SDS011;2388;53.582;9.962;2022-12-17T02:46:04;33.50;;;20.13;;
4748;SDS011;2388;53.582;9.962;2022-12-17T02:48:49;37.47;;;22.30;;
4748;SDS011;2388;53.582;9.962;2022-12-17T02:51:33;30.08;;;19.23;;
4748;SDS011;2388;53.582;9.962;2022-12-17T02:54:17;34.30;;;20.95;;
4748;SDS011;2388;53.582;9.962;2022-12-17T02:57:01;34.40;;;20.48;;
4748;SDS011;2388;53.582;9.962;2022-12-17T02:59:45;34.17;;;21.10;;
4748;SDS011;2388;53.582;9.962;2022-12-17T03:02:29;35.88;;;21.80;;
4748;SDS011;2388;53.582;9.962;2022-12-17T03:05:13;33.75;;;20.95;;
4748;SDS011;2388;53.582;9.962;2022-12-17T03:07:57;38.90;;;22.98;;
4748;SDS011;2388;53.582;9.962;2022-12-17T03:10:41;39.17;;;21.00;;
4748;SDS011;2388;53.582;9.962;2022-12-17T03:13:26;34.20;;;22.00;;
4748;SDS011;2388;53.582;9.962;2022-12-17T03:16:13;35.10;;;20.65;;
4748;SDS011;2388;53.582;9.962;2022-12-17T03:18:58;39.63;;;22.33;;
4748;SDS011;2388;53.582;9.962;2022-12-17T03:21:43;35.85;;;21.77;;
4748;SDS011;2388;53.582;9.962;2022-12-17T03:24:27;37.38;;;21.33;;
4748;SDS011;2388;53.582;9.962;2022-12-17T03:27:12;33.78;;;21.58;;
4748;SDS011;2388;53.582;9.962;2022-12-17T03:29:57;38.42;;;22.48;;
4748;SDS011;2388;53.582;9.962;2022-12-17T03:32:41;31.38;;;19.83;;
4748;SDS011;2388;53.582;9.962;2022-12-17T03:35:25;32.63;;;21.85;;
4748;SDS011;2388;53.582;9.962;2022-12-17T03:38:09;38.60;;;23.60;;
4748;SDS011;2388;53.582;9.962;2022-12-17T03:40:54;36.45;;;22.40;;
4748;SDS011;2388;53.582;9.962;2022-12-17T03:43:38;48.47;;;23.63;;
4748;SDS011;2388;53.582;9.962;2022-12-17T03:46:22;40.95;;;20.70;;
4748;SDS011;2388;53.582;9.962;2022-12-17T03:49:06;42.42;;;22.15;;
4748;SDS011;2388;53.582;9.962;2022-12-17T03:51:51;39.83;;;22.55;;
4748;SDS011;2388;53.582;9.962;2022-12-17T03:54:36;42.92;;;23.33;;
4748;SDS011;2388;53.582;9.962;2022-12-17T03:57:20;38.88;;;21.92;;
4748;SDS011;2388;53.582;9.962;2022-12-17T04:00:04;34.10;;;21.73;;
4748;SDS011;2388;53.582;9.962;2022-12-17T04:02:49;40.10;;;21.65;;
4748;SDS011;2388;53.582;9.962;2022-12-17T04:05:33;37.15;;;21.88;;
4748;SDS011;2388;53.582;9.962;2022-12-17T04:08:17;38.78;;;23.27;;
4748;SDS011;2388;53.582;9.962;2022-12-17T04:11:01;34.83;;;22.10;;
4748;SDS011;2388;53.582;9.962;2022-12-17T04:13:45;38.30;;;21.20;;
4748;SDS011;2388;53.582;9.962;2022-12-17T04:16:30;48.90;;;23.20;;
4748;SDS011;2388;53.582;9.962;2022-12-17T04:19:13;42.17;;;21.02;;
4748;SDS011;2388;53.582;9.962;2022-12-17T04:21:57;35.55;;;22.52;;
4748;SDS011;2388;53.582;9.962;2022-12-17T04:24:41;42.80;;;23.73;;
4748;SDS011;2388;53.582;9.962;2022-12-17T04:27:25;36.25;;;21.20;;
4748;SDS011;2388;53.582;9.962;2022-12-17T04:30:09;35.10;;;22.42;;
4748;SDS011;2388;53.582;9.962;2022-12-17T04:32:54;38.70;;;21.67;;
4748;SDS011;2388;53.582;9.962;2022-12-17T04:35:37;33.83;;;20.10;;
4748;SDS011;2388;53.582;9.962;2022-12-17T04:38:21;36.83;;;20.20;;
4748;SDS011;2388;53.582;9.962;2022-12-17T04:41:06;35.08;;;20.20;;
4748;SDS011;2388;53.582;9.962;2022-12-17T04:43:50;28.58;;;18.95;;
4748;SDS011;2388;53.582;9.962;2022-12-17T04:46:34;33.20;;;19.60;;
4748;SDS011;2388;53.582;9.962;2022-12-17T04:49:18;33.63;;;19.70;;
4748;SDS011;2388;53.582;9.962;2022-12-17T04:52:02;31.30;;;18.63;;
4748;SDS011;2388;53.582;9.962;2022-12-17T04:54:46;40.85;;;20.10;;
4748;SDS011;2388;53.582;9.962;2022-12-17T04:57:30;32.53;;;20.33;;
4748;SDS011;2388;53.582;9.962;2022-12-17T05:00:15;30.77;;;19.65;;
4748;SDS011;2388;53.582;9.962;2022-12-17T05:03:03;34.25;;;20.98;;
4748;SDS011;2388;53.582;9.962;2022-12-17T05:05:53;36.05;;;21.33;;
4748;SDS011;2388;53.582;9.962;2022-12-17T05:08:37;35.88;;;20.42;;
4748;SDS011;2388;53.582;9.962;2022-12-17T05:11:21;30.67;;;18.70;;
4748;SDS011;2388;53.582;9.962;2022-12-17T05:14:05;28.33;;;17.35;;
4748;SDS011;2388;53.582;9.962;2022-12-17T05:16:50;37.35;;;20.30;;
4748;SDS011;2388;53.582;9.962;2022-12-17T05:19:34;36.83;;;19.88;;
4748;SDS011;2388;53.582;9.962;2022-12-17T05:22:17;33.15;;;19.50;;
4748;SDS011;2388;53.582;9.962;2022-12-17T05:25:02;31.52;;;19.25;;
4748;SDS011;2388;53.582;9.962;2022-12-17T05:27:46;33.25;;;21.25;;
4748;SDS011;2388;53.582;9.962;2022-12-17T05:30:30;29.05;;;19.83;;
4748;SDS011;2388;53.582;9.962;2022-12-17T05:33:14;35.40;;;20.70;;
4748;SDS011;2388;53.582;9.962;2022-12-17T05:36:02;38.60;;;19.10;;
4748;SDS011;2388;53.582;9.962;2022-12-17T05:38:47;28.27;;;18.50;;
4748;SDS011;2388;53.582;9.962;2022-12-17T05:41:32;30.95;;;17.20;;
4748;SDS011;2388;53.582;9.962;2022-12-17T05:44:16;27.00;;;16.45;;
4748;SDS011;2388;53.582;9.962;2022-12-17T05:47:00;23.15;;;14.73;;
4748;SDS011;2388;53.582;9.962;2022-12-17T05:49:45;21.27;;;15.20;;
4748;SDS011;2388;53.582;9.962;2022-12-17T05:52:29;22.25;;;15.10;;
4748;SDS011;2388;53.582;9.962;2022-12-17T05:55:13;21.67;;;14.13;;
4748;SDS011;2388;53.582;9.962;2022-12-17T05:58:03;21.40;;;14.00;;
4748;SDS011;2388;53.582;9.962;2022-12-17T06:00:53;17.65;;;12.80;;
4748;SDS011;2388;53.582;9.962;2022-12-17T06:03:42;25.30;;;14.65;;
4748;SDS011;2388;53.582;9.962;2022-12-17T06:06:26;20.63;;;14.07;;
4748;SDS011;2388;53.582;9.962;2022-12-17T06:09:10;22.00;;;14.95;;
4748;SDS011;2388;53.582;9.962;2022-12-17T06:11:54;21.98;;;13.07;;
4748;SDS011;2388;53.582;9.962;2022-12-17T06:14:38;32.30;;;13.43;;
4748;SDS011;2388;53.582;9.962;2022-12-17T06:17:22;18.50;;;12.77;;
4748;SDS011;2388;53.582;9.962;2022-12-17T06:20:07;21.75;;;13.50;;
4748;SDS011;2388;53.582;9.962;2022-12-17T06:22:58;19.88;;;14.27;;
4748;SDS011;2388;53.582;9.962;2022-12-17T06:25:54;24.08;;;13.57;;
4748;SDS011;2388;53.582;9.962;2022-12-17T06:28:39;23.05;;;13.80;;
4748;SDS011;2388;53.582;9.962;2022-12-17T06:31:24;20.60;;;14.15;;
4748;SDS011;2388;53.582;9.962;2022-12-17T06:34:09;21.67;;;13.50;;
4748;SDS011;2388;53.582;9.962;2022-12-17T06:36:53;21.58;;;13.50;;
4748;SDS011;2388;53.582;9.962;2022-12-17T06:39:37;28.17;;;14.55;;
4748;SDS011;2388;53.582;9.962;2022-12-17T06:42:21;20.75;;;15.02;;
4748;SDS011;2388;53.582;9.962;2022-12-17T06:45:05;23.42;;;15.00;;
4748;SDS011;2388;53.582;9.962;2022-12-17T06:47:49;23.13;;;14.70;;
4748;SDS011;2388;53.582;9.962;2022-12-17T06:50:33;27.52;;;15.02;;
4748;SDS011;2388;53.582;9.962;2022-12-17T06:53:17;24.20;;;14.30;;
4748;SDS011;2388;53.582;9.962;2022-12-17T06:56:01;29.45;;;15.63;;
4748;SDS011;2388;53.582;9.962;2022-12-17T06:58:45;24.25;;;14.43;;
4748;SDS011;2388;53.582;9.962;2022-12-17T07:01:29;23.40;;;15.35;;
4748;SDS011;2388;53.582;9.962;2022-12-17T07:04:13;28.52;;;15.25;;
4748;SDS011;2388;53.582;9.962;2022-12-17T07:06:58;27.58;;;15.13;;
4748;SDS011;2388;53.582;9.962;2022-12-17T07:09:42;24.58;;;14.90;;
4748;SDS011;2388;53.582;9.962;2022-12-17T07:12:26;26.45;;;15.88;;
4748;SDS011;2388;53.582;9.962;2022-12-17T07:15:11;23.00;;;14.45;;
4748;SDS011;2388;53.582;9.962;2022-12-17T07:17:56;34.15;;;15.27;;
4748;SDS011;2388;53.582;9.962;2022-12-17T07:20:42;26.38;;;15.60;;
4748;SDS011;2388;53.582;9.962;2022-12-17T07:23:26;24.05;;;14.23;;
4748;SDS011;2388;53.582;9.962;2022-12-17T07:26:10;20.77;;;13.27;;
4748;SDS011;2388;53.582;9.962;2022-12-17T07:28:54;23.35;;;15.10;;
4748;SDS011;2388;53.582;9.962;2022-12-17T07:31:38;23.02;;;13.93;;
4748;SDS011;2388;53.582;9.962;2022-12-17T07:34:22;18.10;;;13.50;;
4748;SDS011;2388;53.582;9.962;2022-12-17T07:37:06;21.55;;;13.90;;
4748;SDS011;2388;53.582;9.962;2022-12-17T07:39:51;25.77;;;14.50;;
4748;SDS011;2388;53.582;9.962;2022-12-17T07:42:35;25.58;;;13.98;;
4748;SDS011;2388;53.582;9.962;2022-12-17T07:45:18;25.40;;;13.13;;
4748;SDS011;2388;53.582;9.962;2022-12-17T07:48:02;20.90;;;14.20;;
4748;SDS011;2388;53.582;9.962;2022-12-17T07:50:47;21.10;;;13.45;;
4748;SDS011;2388;53.582;9.962;2022-12-17T07:53:32;20.60;;;12.98;;
4748;SDS011;2388;53.582;9.962;2022-12-17T07:56:16;19.02;;;12.40;;
4748;SDS011;2388;53.582;9.962;2022-12-17T07:59:00;22.27;;;13.35;;
4748;SDS011;2388;53.582;9.962;2022-12-17T08:01:44;19.83;;;12.60;;
4748;SDS011;2388;53.582;9.962;2022-12-17T08:04:28;22.70;;;12.73;;
4748;SDS011;2388;53.582;9.962;2022-12-17T08:07:17;24.23;;;14.75;;
4748;SDS011;2388;53.582;9.962;2022-12-17T08:10:01;27.13;;;14.52;;
4748;SDS011;2388;53.582;9.962;2022-12-17T08:12:56;19.13;;;13.38;;
4748;SDS011;2388;53.582;9.962;2022-12-17T08:15:42;21.17;;;13.15;;
4748;SDS011;2388;53.582;9.962;2022-12-17T08:18:26;21.70;;;12.98;;
4748;SDS011;2388;53.582;9.962;2022-12-17T08:21:12;21.52;;;12.30;;
4748;SDS011;2388;53.582;9.962;2022-12-17T08:23:56;17.13;;;11.65;;
4748;SDS011;2388;53.582;9.962;2022-12-17T08:26:40;34.42;;;18.15;;
4748;SDS011;2388;53.582;9.962;2022-12-17T08:29:24;23.15;;;14.88;;
4748;SDS011;2388;53.582;9.962;2022-12-17T08:32:08;22.67;;;12.95;;
4748;SDS011;2388;53.582;9.962;2022-12-17T08:34:52;20.35;;;12.93;;
4748;SDS011;2388;53.582;9.962;2022-12-17T08:37:36;18.90;;;12.45;;
4748;SDS011;2388;53.582;9.962;2022-12-17T08:40:22;21.30;;;13.00;;
4748;SDS011;2388;53.582;9.962;2022-12-17T08:43:06;24.88;;;13.25;;
4748;SDS011;2388;53.582;9.962;2022-12-17T08:45:50;21.00;;;14.30;;
4748;SDS011;2388;53.582;9.962;2022-12-17T08:48:35;20.35;;;13.02;;
4748;SDS011;2388;53.582;9.962;2022-12-17T08:51:19;21.83;;;14.75;;
4748;SDS011;2388;53.582;9.962;2022-12-17T08:54:04;21.38;;;13.20;;
4748;SDS011;2388;53.582;9.962;2022-12-17T08:56:48;27.75;;;14.10;;
4748;SDS011;2388;53.582;9.962;2022-12-17T08:59:32;22.55;;;13.48;;
4748;SDS011;2388;53.582;9.962;2022-12-17T09:02:16;20.42;;;13.55;;
4748;SDS011;2388;53.582;9.962;2022-12-17T09:05:00;20.95;;;13.55;;
4748;SDS011;2388;53.582;9.962;2022-12-17T09:07:44;29.33;;;15.20;;
4748;SDS011;2388;53.582;9.962;2022-12-17T09:10:28;25.23;;;15.77;;
4748;SDS011;2388;53.582;9.962;2022-12-17T09:13:12;22.42;;;14.20;;
4748;SDS011;2388;53.582;9.962;2022-12-17T09:15:56;22.15;;;14.77;;
4748;SDS011;2388;53.582;9.962;2022-12-17T09:18:40;23.48;;;14.85;;
4748;SDS011;2388;53.582;9.962;2022-12-17T09:21:28;22.02;;;14.40;;
4748;SDS011;2388;53.582;9.962;2022-12-17T09:24:13;24.48;;;14.82;;
4748;SDS011;2388;53.582;9.962;2022-12-17T09:26:58;77.22;;;41.83;;
4748;SDS011;2388;53.582;9.962;2022-12-17T09:29:41;59.17;;;33.63;;
4748;SDS011;2388;53.582;9.962;2022-12-17T09:32:26;27.75;;;16.80;;
4748;SDS011;2388;53.582;9.962;2022-12-17T09:35:10;22.55;;;15.23;;
4748;SDS011;2388;53.582;9.962;2022-12-17T09:37:54;24.00;;;16.23;;
4748;SDS011;2388;53.582;9.962;2022-12-17T09:40:39;30.75;;;15.70;;
4748;SDS011;2388;53.582;9.962;2022-12-17T09:49:21;27.05;;;15.77;;
4748;SDS011;2388;53.582;9.962;2022-12-17T09:52:25;24.88;;;16.88;;
4748;SDS011;2388;53.582;9.962;2022-12-17T09:55:17;24.05;;;16.63;;
4748;SDS011;2388;53.582;9.962;2022-12-17T09:58:05;22.90;;;14.50;;
4748;SDS011;2388;53.582;9.962;2022-12-17T10:00:59;26.83;;;16.45;;
4748;SDS011;2388;53.582;9.962;2022-12-17T10:03:44;23.75;;;15.13;;
4748;SDS011;2388;53.582;9.962;2022-12-17T10:06:29;26.02;;;15.73;;
4748;SDS011;2388;53.582;9.962;2022-12-17T10:09:15;32.38;;;15.20;;
4748;SDS011;2388;53.582;9.962;2022-12-17T10:12:09;29.45;;;16.58;;
4748;SDS011;2388;53.582;9.962;2022-12-17T10:14:56;24.02;;;15.00;;
4748;SDS011;2388;53.582;9.962;2022-12-17T10:17:40;22.35;;;14.70;;
4748;SDS011;2388;53.582;9.962;2022-12-17T10:20:32;22.40;;;13.10;;
4748;SDS011;2388;53.582;9.962;2022-12-17T10:23:24;22.95;;;13.18;;
4748;SDS011;2388;53.582;9.962;2022-12-17T10:26:13;21.80;;;14.13;;
4748;SDS011;2388;53.582;9.962;2022-12-17T10:29:08;18.00;;;12.20;;
4748;SDS011;2388;53.582;9.962;2022-12-17T10:31:56;20.60;;;12.80;;
4748;SDS011;2388;53.582;9.962;2022-12-17T10:34:43;20.42;;;12.15;;
4748;SDS011;2388;53.582;9.962;2022-12-17T10:37:29;19.33;;;13.00;;
4748;SDS011;2388;53.582;9.962;2022-12-17T10:40:24;27.33;;;13.57;;
4748;SDS011;2388;53.582;9.962;2022-12-17T10:43:24;22.30;;;12.30;;
4748;SDS011;2388;53.582;9.962;2022-12-17T10:46:23;17.08;;;10.70;;
4748;SDS011;2388;53.582;9.962;2022-12-17T10:49:28;21.83;;;11.57;;
4748;SDS011;2388;53.582;9.962;2022-12-17T10:52:24;21.08;;;11.60;;
4748;SDS011;2388;53.582;9.962;2022-12-17T10:55:21;17.27;;;12.05;;
4748;SDS011;2388;53.582;9.962;2022-12-17T10:58:13;17.25;;;11.52;;
4748;SDS011;2388;53.582;9.962;2022-12-17T11:01:21;18.27;;;11.85;;
4748;SDS011;2388;53.582;9.962;2022-12-17T11:04:20;20.52;;;12.60;;
4748;SDS011;2388;53.582;9.962;2022-12-17T11:07:11;25.73;;;11.07;;
4748;SDS011;2388;53.582;9.962;2022-12-17T11:10:00;14.48;;;11.18;;
4748;SDS011;2388;53.582;9.962;2022-12-17T11:12:54;14.15;;;10.55;;
4748;SDS011;2388;53.582;9.962;2022-12-17T11:15:49;17.55;;;10.45;;
4748;SDS011;2388;53.582;9.962;2022-12-17T11:21:27;18.10;;;9.75;;
4748;SDS011;2388;53.582;9.962;2022-12-17T11:24:23;12.30;;;9.20;;
4748;SDS011;2388;53.582;9.962;2022-12-17T11:27:13;14.70;;;10.18;;
4748;SDS011;2388;53.582;9.962;2022-12-17T11:30:09;13.40;;;9.60;;
4748;SDS011;2388;53.582;9.962;2022-12-17T11:36:09;16.83;;;9.25;;
4748;SDS011;2388;53.582;9.962;2022-12-17T11:39:06;14.77;;;9.60;;
4748;SDS011;2388;53.582;9.962;2022-12-17T11:44:49;15.05;;;9.23;;
4748;SDS011;2388;53.582;9.962;2022-12-17T11:47:48;13.77;;;8.55;;
4748;SDS011;2388;53.582;9.962;2022-12-17T11:50:43;13.18;;;8.30;;
4748;SDS011;2388;53.582;9.962;2022-12-17T11:56:50;12.98;;;8.65;;
4748;SDS011;2388;53.582;9.962;2022-12-17T12:03:03;11.00;;;7.95;;
4748;SDS011;2388;53.582;9.962;2022-12-17T12:05:57;14.23;;;8.50;;
4748;SDS011;2388;53.582;9.962;2022-12-17T12:14:38;14.18;;;8.20;;
4748;SDS011;2388;53.582;9.962;2022-12-17T12:17:47;21.48;;;11.13;;
4748;SDS011;2388;53.582;9.962;2022-12-17T12:20:45;10.27;;;7.35;;
4748;SDS011;2388;53.582;9.962;2022-12-17T12:26:43;12.43;;;7.50;;
4748;SDS011;2388;53.582;9.962;2022-12-17T12:35:29;12.02;;;6.90;;
4748;SDS011;2388;53.582;9.962;2022-12-17T12:38:19;11.02;;;8.27;;
4748;SDS011;2388;53.582;9.962;2022-12-17T12:44:31;11.18;;;6.75;;
4748;SDS011;2388;53.582;9.962;2022-12-17T12:47:51;10.05;;;7.43;;
4748;SDS011;2388;53.582;9.962;2022-12-17T12:50:49;10.93;;;8.07;;
4748;SDS011;2388;53.582;9.962;2022-12-17T12:53:43;9.50;;;7.28;;
4748;SDS011;2388;53.582;9.962;2022-12-17T12:56:34;7.63;;;6.45;;
4748;SDS011;2388;53.582;9.962;2022-12-17T12:59:37;16.05;;;8.55;;
4748;SDS011;2388;53.582;9.962;2022-12-17T13:02:23;9.05;;;6.78;;
4748;SDS011;2388;53.582;9.962;2022-12-17T13:05:20;11.00;;;7.38;;
4748;SDS011;2388;53.582;9.962;2022-12-17T13:08:01;14.55;;;7.20;;
4748;SDS011;2388;53.582;9.962;2022-12-17T13:10:28;14.60;;;8.07;;
4748;SDS011;2388;53.582;9.962;2022-12-17T13:12:55;10.85;;;7.32;;
4748;SDS011;2388;53.582;9.962;2022-12-17T13:15:26;9.75;;;6.85;;
4748;SDS011;2388;53.582;9.962;2022-12-17T13:18:02;9.75;;;7.82;;
4748;SDS011;2388;53.582;9.962;2022-12-17T13:20:41;10.40;;;7.10;;
4748;SDS011;2388;53.582;9.962;2022-12-17T13:25:37;8.30;;;6.60;;
4748;SDS011;2388;53.582;9.962;2022-12-17T13:28:03;10.90;;;8.30;;
4748;SDS011;2388;53.582;9.962;2022-12-17T13:33:13;7.88;;;7.05;;
4748;SDS011;2388;53.582;9.962;2022-12-17T13:38:42;10.10;;;7.75;;
4748;SDS011;2388;53.582;9.962;2022-12-17T13:41:18;10.27;;;6.40;;
4748;SDS011;2388;53.582;9.962;2022-12-17T13:44:15;11.27;;;7.43;;
4748;SDS011;2388;53.582;9.962;2022-12-17T13:46:44;10.07;;;7.40;;
4748;SDS011;2388;53.582;9.962;2022-12-17T13:49:24;12.45;;;6.93;;
4748;SDS011;2388;53.582;9.962;2022-12-17T13:52:15;11.05;;;7.75;;
4748;SDS011;2388;53.582;9.962;2022-12-17T13:54:41;11.23;;;7.68;;
4748;SDS011;2388;53.582;9.962;2022-12-17T13:57:14;10.20;;;7.27;;
4748;SDS011;2388;53.582;9.962;2022-12-17T13:59:48;10.13;;;7.35;;
4748;SDS011;2388;53.582;9.962;2022-12-17T14:02:26;11.63;;;7.53;;
4748;SDS011;2388;53.582;9.962;2022-12-17T14:04:56;10.13;;;7.63;;
4748;SDS011;2388;53.582;9.962;2022-12-17T14:07:24;12.18;;;7.97;;
4748;SDS011;2388;53.582;9.962;2022-12-17T14:09:51;12.15;;;7.70;;
4748;SDS011;2388;53.582;9.962;2022-12-17T14:12:17;12.50;;;8.35;;
4748;SDS011;2388;53.582;9.962;2022-12-17T14:14:50;11.02;;;7.55;;
4748;SDS011;2388;53.582;9.962;2022-12-17T14:17:25;11.27;;;8.68;;
4748;SDS011;2388;53.582;9.962;2022-12-17T14:22:45;13.35;;;8.77;;
4748;SDS011;2388;53.582;9.962;2022-12-17T14:25:18;13.30;;;8.52;;
4748;SDS011;2388;53.582;9.962;2022-12-17T14:27:58;42.78;;;23.10;;
4748;SDS011;2388;53.582;9.962;2022-12-17T14:30:35;26.88;;;16.75;;
4748;SDS011;2388;53.582;9.962;2022-12-17T14:33:03;17.50;;;11.55;;
4748;SDS011;2388;53.582;9.962;2022-12-17T14:35:49;14.50;;;10.60;;
4748;SDS011;2388;53.582;9.962;2022-12-17T14:38:16;12.10;;;8.80;;
4748;SDS011;2388;53.582;9.962;2022-12-17T14:40:42;12.15;;;8.82;;
4748;SDS011;2388;53.582;9.962;2022-12-17T14:43:08;14.70;;;9.40;;
4748;SDS011;2388;53.582;9.962;2022-12-17T14:45:37;10.68;;;7.85;;
4748;SDS011;2388;53.582;9.962;2022-12-17T14:48:23;12.57;;;8.73;;
4748;SDS011;2388;53.582;9.962;2022-12-17T14:51:32;14.00;;;8.95;;
4748;SDS011;2388;53.582;9.962;2022-12-17T14:54:12;12.23;;;8.90;;
4748;SDS011;2388;53.582;9.962;2022-12-17T14:56:43;13.25;;;8.25;;
4748;SDS011;2388;53.582;9.962;2022-12-17T14:59:21;15.10;;;9.50;;
4748;SDS011;2388;53.582;9.962;2022-12-17T15:01:48;11.52;;;8.40;;
4748;SDS011;2388;53.582;9.962;2022-12-17T15:04:14;14.13;;;9.70;;
4748;SDS011;2388;53.582;9.962;2022-12-17T15:06:41;14.98;;;9.23;;
4748;SDS011;2388;53.582;9.962;2022-12-17T15:09:08;16.50;;;9.27;;
4748;SDS011;2388;53.582;9.962;2022-12-17T15:11:35;16.48;;;9.40;;
4748;SDS011;2388;53.582;9.962;2022-12-17T15:14:01;18.80;;;11.40;;
4748;SDS011;2388;53.582;9.962;2022-12-17T15:16:26;25.17;;;15.10;;
4748;SDS011;2388;53.582;9.962;2022-12-17T15:18:52;18.10;;;9.07;;
4748;SDS011;2388;53.582;9.962;2022-12-17T15:21:17;19.17;;;9.80;;
4748;SDS011;2388;53.582;9.962;2022-12-17T15:23:43;14.03;;;9.00;;
4748;SDS011;2388;53.582;9.962;2022-12-17T15:26:10;12.82;;;9.35;;
4748;SDS011;2388;53.582;9.962;2022-12-17T15:28:36;14.73;;;9.57;;
4748;SDS011;2388;53.582;9.962;2022-12-17T15:31:01;12.10;;;8.63;;
4748;SDS011;2388;53.582;9.962;2022-12-17T15:33:27;13.52;;;8.68;;
4748;SDS011;2388;53.582;9.962;2022-12-17T15:35:53;11.97;;;8.90;;
4748;SDS011;2388;53.582;9.962;2022-12-17T15:38:18;14.60;;;8.37;;
4748;SDS011;2388;53.582;9.962;2022-12-17T15:40:44;13.17;;;8.30;;
4748;SDS011;2388;53.582;9.962;2022-12-17T15:43:10;11.03;;;8.33;;
4748;SDS011;2388;53.582;9.962;2022-12-17T15:45:45;13.02;;;9.30;;
4748;SDS011;2388;53.582;9.962;2022-12-17T15:48:14;13.32;;;7.68;;
4748;SDS011;2388;53.582;9.962;2022-12-17T15:50:44;12.02;;;8.30;;
4748;SDS011;2388;53.582;9.962;2022-12-17T15:53:10;11.02;;;7.18;;
4748;SDS011;2388;53.582;9.962;2022-12-17T15:55:35;9.53;;;6.97;;
4748;SDS011;2388;53.582;9.962;2022-12-17T15:58:02;10.10;;;6.60;;
4748;SDS011;2388;53.582;9.962;2022-12-17T16:00:28;8.10;;;6.77;;
4748;SDS011;2388;53.582;9.962;2022-12-17T16:02:53;16.27;;;7.30;;
4748;SDS011;2388;53.582;9.962;2022-12-17T16:05:19;12.77;;;6.70;;
4748;SDS011;2388;53.582;9.962;2022-12-17T16:07:45;8.83;;;6.53;;
4748;SDS011;2388;53.582;9.962;2022-12-17T16:10:11;9.43;;;6.77;;
4748;SDS011;2388;53.582;9.962;2022-12-17T16:12:37;11.15;;;6.70;;
4748;SDS011;2388;53.582;9.962;2022-12-17T16:15:03;9.00;;;6.77;;
4748;SDS011;2388;53.582;9.962;2022-12-17T16:17:29;11.30;;;6.00;;
4748;SDS011;2388;53.582;9.962;2022-12-17T16:19:55;8.33;;;5.97;;
4748;SDS011;2388;53.582;9.962;2022-12-17T16:22:21;9.20;;;6.37;;
4748;SDS011;2388;53.582;9.962;2022-12-17T16:24:46;10.93;;;7.07;;
4748;SDS011;2388;53.582;9.962;2022-12-17T16:27:12;9.80;;;5.70;;
4748;SDS011;2388;53.582;9.962;2022-12-17T16:29:42;10.50;;;6.43;;
4748;SDS011;2388;53.582;9.962;2022-12-17T16:32:07;12.27;;;6.23;;
4748;SDS011;2388;53.582;9.962;2022-12-17T16:34:33;12.27;;;6.33;;
4748;SDS011;2388;53.582;9.962;2022-12-17T16:36:58;8.77;;;6.47;;
4748;SDS011;2388;53.582;9.962;2022-12-17T16:39:25;8.43;;;6.95;;
4748;SDS011;2388;53.582;9.962;2022-12-17T16:41:51;12.97;;;7.40;;
4748;SDS011;2388;53.582;9.962;2022-12-17T16:44:16;11.83;;;6.63;;
4748;SDS011;2388;53.582;9.962;2022-12-17T16:46:42;10.33;;;6.63;;
4748;SDS011;2388;53.582;9.962;2022-12-17T16:49:15;8.80;;;6.90;;
4748;SDS011;2388;53.582;9.962;2022-12-17T16:51:45;13.48;;;6.65;;
4748;SDS011;2388;53.582;9.962;2022-12-17T16:54:17;10.02;;;5.68;;
4748;SDS011;2388;53.582;9.962;2022-12-17T16:56:48;7.53;;;5.88;;
4748;SDS011;2388;53.582;9.962;2022-12-17T16:59:15;11.00;;;6.22;;
4748;SDS011;2388;53.582;9.962;2022-12-17T17:01:42;7.10;;;5.43;;
4748;SDS011;2388;53.582;9.962;2022-12-17T17:04:08;13.30;;;6.90;;
4748;SDS011;2388;53.582;9.962;2022-12-17T17:06:38;10.13;;;7.03;;
4748;SDS011;2388;53.582;9.962;2022-12-17T17:09:05;15.50;;;8.02;;
4748;SDS011;2388;53.582;9.962;2022-12-17T17:11:31;13.13;;;8.30;;
4748;SDS011;2388;53.582;9.962;2022-12-17T17:13:57;11.43;;;7.73;;
4748;SDS011;2388;53.582;9.962;2022-12-17T17:16:23;10.53;;;7.40;;
4748;SDS011;2388;53.582;9.962;2022-12-17T17:18:49;16.58;;;8.55;;
4748;SDS011;2388;53.582;9.962;2022-12-17T17:23:49;17.40;;;9.23;;